Naguabo, PR (00718)

11:06 AM AST on July 30, 2015 (GMT -0400)
Manejo de Emergencias Ceiba | | Change Station
CLOSE
Current Station
Personal Weather Station
Location: Ceiba, PR
Elevation: 95 ft
Nearby Weather Stations

Elev 95 ft 18.26 °N, 65.65 °W | Updated 3 minutes ago

Scattered Clouds
Scattered Clouds
88.7 °F
Feels Like 101 °F
N
4.0
Wind Variable Wind from ESE
Gusts 12.0 mph

Today
High -- | Low -- °F
--% Chance of Precip.
Yesterday
High -- | Low -- °F
Precip. -- in
6:00 AM 6:58 PM
Waxing Gibbous, 99% visible
Pressure 30.07 in
Visibility 10.0 miles
Clouds Few 2800 ft
Scattered Clouds 3600 ft
Heat Index 101 °F
Dew Point 77 °F
Humidity 68%
Rainfall -999.00 in
Snow Depth Not available.
UV 9 out of 12
Pollen Not available.
Air Quality Not available.
Flu Activity Not available.
METAR TJSJ 301456Z 07018G23KT 10SM FEW028 SCT036 31/24 A3007 RMK AO2 SLP181 60000 T03110239 50001

More Conditions Fewer Conditions

Pressure 30.07 in
Visibility 10.0 miles
Clouds Few 2800 ft
Scattered Clouds 3600 ft
Heat Index 101 °F
Dew Point 77 °F
Humidity 68%
Rainfall -999.00 in
Snow Depth Not available.
UV 9 out of 12
Pollen Not available.
Air Quality Not available.
Flu Activity Not available.
METAR TJSJ 301456Z 07018G23KT 10SM FEW028 SCT036 31/24 A3007 RMK AO2 SLP181 60000 T03110239 50001

More Conditions Fewer Conditions

10-Day Weather Forecast

×

Almanac

Astronomy

Jul. 30, 2015 Rise Set
Actual Time
Civil Twilight
Nautical Twilight
Astronomical Twilight
Moon
Length of Visible Light
Length of Day
Tomorrow will be .
, % of the Moon is Illuminated

Today's Extremes

State Highs State Lows

Community

WunderPhotos

Upload Photos

1,842,402 photos uploaded!

WunderBlogs® & News

Nearby

Air Quality

  Air Quality AQ Index Pollutant
Not available.

Snow Depth

Station Depth Elevation

Earthquake Activity

City Distance Mag. Time & Date
Minimum magnitude displayed is 2.5.

Coastal Water Temperatures

Place Temperature

Stations

Nearby Weather Stations

Station Location Temp. Windchill Dew Point Humidity Wind Precip. Elev Updated Type